Home   Weather   USA   Beulah   Past weeks
Flag for USA

Past Weather in Beulah, North Dakota, USA — Yesterday and Last 2 Weeks

Currently: 90 °F. Sunny. (Weather station: Mercer County Regional Airport, USA). See more current weather

Past Weather in Beulah — Graph

°F

Beulah Temperature Yesterday

Maximum temperature yesterday: 90 °F (at 4:15 pm)
Minimum temperature yesterday: 55 °F (at 6:35 am)
Average temperature yesterday: 73 °F

High & Low Weather Summary for the Past Weeks

 TemperatureHumidityPressure
High100 °F (Jul 19, 3:55 pm)100% (Jul 21, 10:35 pm)30.32 "Hg (Jul 21, 10:35 pm)
Low46 °F (Jul 25, 6:35 am)19% (Jul 24, 4:55 pm)29.84 "Hg (Jul 26, 5:15 am)
Average74 °F64%30.03 "Hg
* Reported Jul 19 3:15 pm — Aug 3 3:55 pm, Beulah. Weather by CustomWeather, © 2021

Note: Actual official high and low records may vary slightly from our data, if they occured in-between our weather recording intervals... More about our weather records

Beulah Weather History for the Previous 24 Hours

Scroll right to see more
 ConditionsComfort  
Time TempWeatherWind HumidityBarometerVisibility
3:55 pm
Tue, Aug 3
91 °FSunny.5 mph26%29.99 "Hg9 mi
3:35 pm90 °FSunny.5 mph29%30.00 "Hg10 mi
3:15 pm90 °FSunny.8 mph29%30.00 "Hg9 mi
2:35 pm90 °FPassing clouds.14 mph26%30.01 "Hg10 mi
1:55 pm88 °FSunny.9 mph31%30.01 "Hg10 mi
1:35 pm88 °FSunny.3 mph31%30.02 "Hg10 mi
12:35 pm88 °FSunny.3 mph38%30.03 "Hg10 mi
11:55 am84 °FSunny.6 mph45%30.05 "Hg10 mi
11:35 am81 °FSunny.3 mph51%30.05 "Hg9 mi
11:15 am81 °FSunny.No wind51%30.06 "Hg9 mi
10:55 am79 °FSunny.No wind54%30.06 "Hg9 mi
10:35 am75 °FSunny.No wind61%30.06 "Hg9 mi
10:15 am73 °FSunny.No wind65%30.07 "Hg9 mi
9:55 am70 °FSunny.No wind69%30.07 "Hg8 mi
9:35 am68 °FSunny.No wind73%30.08 "Hg6 mi
9:15 am66 °FSunny.No wind78%30.07 "Hg9 mi
8:55 am64 °FSunny.No wind78%30.08 "Hg9 mi
8:35 am63 °FSunny.No wind83%30.08 "Hg8 mi
8:15 am61 °FFog.No wind88%30.08 "Hg4 mi
7:55 am59 °FSunny.No wind94%30.07 "Hg8 mi
7:35 am54 °FSunny.No wind100%30.07 "Hg8 mi
7:15 am54 °FFog.No wind100%30.07 "Hg2 mi
6:55 am54 °FFog.No wind100%30.07 "Hg4 mi
6:35 am55 °FFog.No wind94%30.07 "Hg3 mi
6:15 am54 °FFog.No wind100%30.06 "Hg6 mi
5:55 am54 °FFog.No wind100%30.07 "Hg6 mi
5:35 am57 °FOvercast.No wind88%30.07 "Hg10 mi
5:15 am55 °FOvercast.No wind94%30.07 "Hg10 mi
4:55 am55 °FOvercast.3 mph94%30.07 "Hg10 mi
4:35 am55 °FOvercast.3 mph94%30.07 "Hg10 mi
4:15 am55 °FOvercast.No wind88%30.07 "Hg10 mi
3:55 am57 °FOvercast.No wind82%30.07 "Hg10 mi
3:35 am57 °FOvercast.No wind82%30.07 "Hg10 mi
3:15 am57 °FOvercast.3 mph82%30.07 "Hg10 mi
2:55 am59 °FOvercast.No wind77%30.07 "Hg10 mi
2:35 am59 °FOvercast.No wind77%30.07 "Hg10 mi
2:15 am61 °FOvercast.5 mph72%30.07 "Hg10 mi
1:55 am61 °FOvercast.5 mph72%30.07 "Hg10 mi
1:35 am59 °FPartly cloudy.No wind77%30.07 "Hg10 mi
1:15 am59 °FPassing clouds.No wind77%30.07 "Hg10 mi
12:55 am61 °FPassing clouds.No wind72%30.07 "Hg10 mi
12:35 am61 °FPassing clouds.No wind72%30.07 "Hg10 mi
12:15 am61 °FPassing clouds.No wind72%30.07 "Hg10 mi
11:55 pm
Mon, Aug 2
63 °FPassing clouds.No wind68%30.07 "Hg10 mi
11:35 pm63 °FPassing clouds.No wind68%30.07 "Hg10 mi
11:15 pm64 °FPassing clouds.No wind64%30.07 "Hg10 mi
10:55 pm64 °FPassing clouds.No wind64%30.08 "Hg10 mi
10:35 pm68 °FClear.No wind56%30.07 "Hg10 mi
10:15 pm73 °FPassing clouds.5 mph47%30.07 "Hg10 mi
9:55 pm73 °FPassing clouds.5 mph50%30.07 "Hg8 mi
9:35 pm75 °FClear.5 mph47%30.06 "Hg9 mi
8:55 pm79 °FSunny.No wind45%30.05 "Hg10 mi
8:35 pm82 °FSunny.3 mph35%30.05 "Hg10 mi
8:15 pm84 °FSunny.7 mph33%30.05 "Hg10 mi
7:55 pm86 °FSunny.9 mph31%30.05 "Hg10 mi
7:35 pm88 °FSunny.8 mph29%30.05 "Hg10 mi
6:35 pm90 °FSunny.No wind26%30.05 "Hg10 mi
6:15 pm90 °FHot.3 mph26%30.06 "Hg10 mi
5:55 pm90 °FHot.No wind24%30.06 "Hg10 mi
5:35 pm90 °FHot.3 mph26%30.06 "Hg9 mi
5:15 pm90 °FSunny.6 mph26%30.07 "Hg10 mi
Weather by CustomWeather, © 2021

See weather overview